sensor_id;sensor_type;location;lat;lon;timestamp;P1;durP1;ratioP1;P2;durP2;ratioP2
6249;SDS011;3158;52.148;11.568;2024-01-06T00:04:03;11.40;;;6.10;;
6249;SDS011;3158;52.148;11.568;2024-01-06T00:09:05;9.93;;;6.03;;
6249;SDS011;3158;52.148;11.568;2024-01-06T00:14:06;11.25;;;6.13;;
6249;SDS011;3158;52.148;11.568;2024-01-06T00:19:07;9.73;;;6.15;;
6249;SDS011;3158;52.148;11.568;2024-01-06T00:24:08;11.43;;;6.45;;
6249;SDS011;3158;52.148;11.568;2024-01-06T00:29:09;11.35;;;6.15;;
6249;SDS011;3158;52.148;11.568;2024-01-06T00:34:10;10.10;;;5.85;;
6249;SDS011;3158;52.148;11.568;2024-01-06T00:39:11;12.65;;;6.40;;
6249;SDS011;3158;52.148;11.568;2024-01-06T00:44:12;14.95;;;6.07;;
6249;SDS011;3158;52.148;11.568;2024-01-06T00:49:13;17.05;;;7.88;;
6249;SDS011;3158;52.148;11.568;2024-01-06T00:54:14;11.35;;;5.90;;
6249;SDS011;3158;52.148;11.568;2024-01-06T00:59:15;12.15;;;7.03;;
6249;SDS011;3158;52.148;11.568;2024-01-06T01:04:16;15.02;;;6.88;;
6249;SDS011;3158;52.148;11.568;2024-01-06T01:09:17;9.65;;;5.93;;
6249;SDS011;3158;52.148;11.568;2024-01-06T01:14:18;19.13;;;9.10;;
6249;SDS011;3158;52.148;11.568;2024-01-06T01:19:19;25.27;;;9.75;;
6249;SDS011;3158;52.148;11.568;2024-01-06T01:24:20;32.72;;;11.82;;
6249;SDS011;3158;52.148;11.568;2024-01-06T01:29:21;27.48;;;9.32;;
6249;SDS011;3158;52.148;11.568;2024-01-06T01:34:22;28.65;;;9.63;;
6249;SDS011;3158;52.148;11.568;2024-01-06T01:39:23;26.80;;;10.02;;
6249;SDS011;3158;52.148;11.568;2024-01-06T01:44:24;33.05;;;10.35;;
6249;SDS011;3158;52.148;11.568;2024-01-06T01:49:25;33.00;;;8.70;;
6249;SDS011;3158;52.148;11.568;2024-01-06T01:54:26;29.52;;;9.10;;
6249;SDS011;3158;52.148;11.568;2024-01-06T01:59:27;25.55;;;9.18;;
6249;SDS011;3158;52.148;11.568;2024-01-06T02:04:28;23.67;;;9.52;;
6249;SDS011;3158;52.148;11.568;2024-01-06T02:09:29;28.45;;;9.40;;
6249;SDS011;3158;52.148;11.568;2024-01-06T02:14:31;31.25;;;10.55;;
6249;SDS011;3158;52.148;11.568;2024-01-06T02:19:32;35.78;;;10.30;;
6249;SDS011;3158;52.148;11.568;2024-01-06T02:24:33;26.05;;;10.32;;
6249;SDS011;3158;52.148;11.568;2024-01-06T02:29:34;29.65;;;9.75;;
6249;SDS011;3158;52.148;11.568;2024-01-06T02:34:35;22.70;;;8.65;;
6249;SDS011;3158;52.148;11.568;2024-01-06T02:39:38;29.45;;;10.82;;
6249;SDS011;3158;52.148;11.568;2024-01-06T02:44:39;27.85;;;10.05;;
6249;SDS011;3158;52.148;11.568;2024-01-06T02:49:40;40.83;;;10.40;;
6249;SDS011;3158;52.148;11.568;2024-01-06T02:54:41;31.27;;;10.35;;
6249;SDS011;3158;52.148;11.568;2024-01-06T02:59:42;27.75;;;9.27;;
6249;SDS011;3158;52.148;11.568;2024-01-06T03:04:43;33.97;;;10.25;;
6249;SDS011;3158;52.148;11.568;2024-01-06T03:09:44;48.05;;;11.32;;
6249;SDS011;3158;52.148;11.568;2024-01-06T03:14:45;26.38;;;9.88;;
6249;SDS011;3158;52.148;11.568;2024-01-06T03:19:46;44.92;;;9.85;;
6249;SDS011;3158;52.148;11.568;2024-01-06T03:24:47;26.45;;;9.40;;
6249;SDS011;3158;52.148;11.568;2024-01-06T03:29:48;20.27;;;10.10;;
6249;SDS011;3158;52.148;11.568;2024-01-06T03:34:49;19.83;;;8.45;;
6249;SDS011;3158;52.148;11.568;2024-01-06T03:39:50;23.27;;;10.15;;
6249;SDS011;3158;52.148;11.568;2024-01-06T03:44:51;25.73;;;10.30;;
6249;SDS011;3158;52.148;11.568;2024-01-06T03:49:52;33.50;;;10.65;;
6249;SDS011;3158;52.148;11.568;2024-01-06T03:54:53;23.63;;;10.30;;
6249;SDS011;3158;52.148;11.568;2024-01-06T03:59:54;24.52;;;9.32;;
6249;SDS011;3158;52.148;11.568;2024-01-06T04:04:55;20.30;;;9.07;;
6249;SDS011;3158;52.148;11.568;2024-01-06T04:09:56;18.73;;;8.52;;
6249;SDS011;3158;52.148;11.568;2024-01-06T04:14:57;14.10;;;7.25;;
6249;SDS011;3158;52.148;11.568;2024-01-06T04:19:58;18.38;;;6.85;;
6249;SDS011;3158;52.148;11.568;2024-01-06T04:25:00;23.70;;;8.88;;
6249;SDS011;3158;52.148;11.568;2024-01-06T04:30:01;15.68;;;7.32;;
6249;SDS011;3158;52.148;11.568;2024-01-06T04:35:02;22.30;;;8.65;;
6249;SDS011;3158;52.148;11.568;2024-01-06T04:40:03;25.25;;;10.40;;
6249;SDS011;3158;52.148;11.568;2024-01-06T04:45:04;35.92;;;10.05;;
6249;SDS011;3158;52.148;11.568;2024-01-06T04:50:05;28.25;;;11.50;;
6249;SDS011;3158;52.148;11.568;2024-01-06T04:55:07;27.77;;;10.75;;
6249;SDS011;3158;52.148;11.568;2024-01-06T05:00:10;25.65;;;9.30;;
6249;SDS011;3158;52.148;11.568;2024-01-06T05:05:12;24.55;;;9.38;;
6249;SDS011;3158;52.148;11.568;2024-01-06T05:10:13;28.67;;;9.52;;
6249;SDS011;3158;52.148;11.568;2024-01-06T05:15:14;29.67;;;9.18;;
6249;SDS011;3158;52.148;11.568;2024-01-06T05:20:15;24.33;;;8.88;;
6249;SDS011;3158;52.148;11.568;2024-01-06T05:25:16;27.90;;;9.40;;
6249;SDS011;3158;52.148;11.568;2024-01-06T05:30:17;21.95;;;8.50;;
6249;SDS011;3158;52.148;11.568;2024-01-06T05:35:18;18.35;;;8.20;;
6249;SDS011;3158;52.148;11.568;2024-01-06T05:40:19;16.92;;;7.95;;
6249;SDS011;3158;52.148;11.568;2024-01-06T05:45:21;20.77;;;9.23;;
6249;SDS011;3158;52.148;11.568;2024-01-06T05:50:22;22.70;;;8.95;;
6249;SDS011;3158;52.148;11.568;2024-01-06T05:55:23;18.33;;;8.38;;
6249;SDS011;3158;52.148;11.568;2024-01-06T06:00:24;18.90;;;7.70;;
6249;SDS011;3158;52.148;11.568;2024-01-06T06:05:25;19.98;;;8.65;;
6249;SDS011;3158;52.148;11.568;2024-01-06T06:10:26;22.27;;;9.93;;
6249;SDS011;3158;52.148;11.568;2024-01-06T06:15:40;15.85;;;9.00;;
6249;SDS011;3158;52.148;11.568;2024-01-06T06:20:41;20.35;;;7.80;;
6249;SDS011;3158;52.148;11.568;2024-01-06T06:25:43;21.13;;;8.55;;
6249;SDS011;3158;52.148;11.568;2024-01-06T06:30:45;16.75;;;7.57;;
6249;SDS011;3158;52.148;11.568;2024-01-06T06:35:46;18.88;;;9.20;;
6249;SDS011;3158;52.148;11.568;2024-01-06T06:40:47;20.58;;;8.55;;
6249;SDS011;3158;52.148;11.568;2024-01-06T06:45:48;20.30;;;8.82;;
6249;SDS011;3158;52.148;11.568;2024-01-06T06:50:49;27.80;;;10.10;;
6249;SDS011;3158;52.148;11.568;2024-01-06T06:55:50;35.33;;;11.68;;
6249;SDS011;3158;52.148;11.568;2024-01-06T07:00:51;40.55;;;11.70;;
6249;SDS011;3158;52.148;11.568;2024-01-06T07:05:54;28.27;;;10.18;;
6249;SDS011;3158;52.148;11.568;2024-01-06T07:10:55;37.35;;;11.43;;
6249;SDS011;3158;52.148;11.568;2024-01-06T07:15:56;30.98;;;10.98;;
6249;SDS011;3158;52.148;11.568;2024-01-06T07:20:57;33.65;;;12.02;;
6249;SDS011;3158;52.148;11.568;2024-01-06T07:25:58;28.02;;;11.23;;
6249;SDS011;3158;52.148;11.568;2024-01-06T07:31:00;34.08;;;11.95;;
6249;SDS011;3158;52.148;11.568;2024-01-06T07:36:01;41.15;;;11.88;;
6249;SDS011;3158;52.148;11.568;2024-01-06T07:41:02;33.55;;;13.13;;
6249;SDS011;3158;52.148;11.568;2024-01-06T07:46:04;35.42;;;12.82;;
6249;SDS011;3158;52.148;11.568;2024-01-06T07:51:07;38.50;;;11.45;;
6249;SDS011;3158;52.148;11.568;2024-01-06T07:56:09;36.72;;;11.73;;
6249;SDS011;3158;52.148;11.568;2024-01-06T08:01:10;33.95;;;11.65;;
6249;SDS011;3158;52.148;11.568;2024-01-06T08:06:11;35.33;;;11.07;;
6249;SDS011;3158;52.148;11.568;2024-01-06T08:11:12;28.73;;;10.30;;
6249;SDS011;3158;52.148;11.568;2024-01-06T08:16:13;28.42;;;10.10;;
6249;SDS011;3158;52.148;11.568;2024-01-06T08:21:14;26.45;;;11.60;;
6249;SDS011;3158;52.148;11.568;2024-01-06T08:26:15;32.50;;;10.85;;
6249;SDS011;3158;52.148;11.568;2024-01-06T08:31:16;36.13;;;12.00;;
6249;SDS011;3158;52.148;11.568;2024-01-06T08:36:17;31.63;;;12.07;;
6249;SDS011;3158;52.148;11.568;2024-01-06T08:41:18;29.58;;;10.13;;
6249;SDS011;3158;52.148;11.568;2024-01-06T08:46:19;33.63;;;11.07;;
6249;SDS011;3158;52.148;11.568;2024-01-06T08:51:20;31.88;;;11.50;;
6249;SDS011;3158;52.148;11.568;2024-01-06T08:56:21;34.88;;;12.35;;
6249;SDS011;3158;52.148;11.568;2024-01-06T09:01:22;34.30;;;12.32;;
6249;SDS011;3158;52.148;11.568;2024-01-06T09:06:23;28.73;;;10.07;;
6249;SDS011;3158;52.148;11.568;2024-01-06T09:11:24;37.55;;;12.75;;
6249;SDS011;3158;52.148;11.568;2024-01-06T09:16:26;36.13;;;11.00;;
6249;SDS011;3158;52.148;11.568;2024-01-06T09:21:27;38.28;;;11.68;;
6249;SDS011;3158;52.148;11.568;2024-01-06T09:26:28;33.30;;;11.05;;
6249;SDS011;3158;52.148;11.568;2024-01-06T09:31:29;29.67;;;10.98;;
6249;SDS011;3158;52.148;11.568;2024-01-06T09:36:30;35.25;;;11.75;;
6249;SDS011;3158;52.148;11.568;2024-01-06T09:41:31;32.08;;;11.60;;
6249;SDS011;3158;52.148;11.568;2024-01-06T09:46:33;33.53;;;11.15;;
6249;SDS011;3158;52.148;11.568;2024-01-06T09:51:37;39.35;;;11.27;;
6249;SDS011;3158;52.148;11.568;2024-01-06T09:56:39;42.03;;;12.55;;
6249;SDS011;3158;52.148;11.568;2024-01-06T10:01:41;37.03;;;10.90;;
6249;SDS011;3158;52.148;11.568;2024-01-06T10:06:43;32.15;;;12.00;;
6249;SDS011;3158;52.148;11.568;2024-01-06T10:11:44;40.55;;;12.52;;
6249;SDS011;3158;52.148;11.568;2024-01-06T10:16:46;36.33;;;13.10;;
6249;SDS011;3158;52.148;11.568;2024-01-06T10:21:49;44.67;;;14.38;;
6249;SDS011;3158;52.148;11.568;2024-01-06T10:26:50;51.60;;;14.85;;
6249;SDS011;3158;52.148;11.568;2024-01-06T10:31:51;40.78;;;12.30;;
6249;SDS011;3158;52.148;11.568;2024-01-06T10:36:53;36.53;;;12.93;;
6249;SDS011;3158;52.148;11.568;2024-01-06T10:41:54;36.13;;;12.90;;
6249;SDS011;3158;52.148;11.568;2024-01-06T10:46:55;35.33;;;13.35;;
6249;SDS011;3158;52.148;11.568;2024-01-06T10:51:59;38.97;;;13.50;;
6249;SDS011;3158;52.148;11.568;2024-01-06T10:57:01;46.03;;;14.50;;
6249;SDS011;3158;52.148;11.568;2024-01-06T11:02:03;40.47;;;13.15;;
6249;SDS011;3158;52.148;11.568;2024-01-06T11:07:05;40.25;;;13.55;;
6249;SDS011;3158;52.148;11.568;2024-01-06T11:12:07;39.63;;;12.63;;
6249;SDS011;3158;52.148;11.568;2024-01-06T11:17:08;39.60;;;13.70;;
6249;SDS011;3158;52.148;11.568;2024-01-06T11:22:20;43.58;;;13.73;;
6249;SDS011;3158;52.148;11.568;2024-01-06T11:27:25;42.70;;;13.90;;
6249;SDS011;3158;52.148;11.568;2024-01-06T11:42:43;48.38;;;14.10;;
6249;SDS011;3158;52.148;11.568;2024-01-06T11:47:47;43.53;;;14.32;;
6249;SDS011;3158;52.148;11.568;2024-01-06T11:52:49;37.85;;;12.82;;
6249;SDS011;3158;52.148;11.568;2024-01-06T11:57:51;38.75;;;14.05;;
6249;SDS011;3158;52.148;11.568;2024-01-06T12:02:55;37.60;;;13.20;;
6249;SDS011;3158;52.148;11.568;2024-01-06T12:07:57;40.22;;;13.73;;
6249;SDS011;3158;52.148;11.568;2024-01-06T12:18:02;47.78;;;14.20;;
6249;SDS011;3158;52.148;11.568;2024-01-06T12:23:03;45.28;;;14.30;;
6249;SDS011;3158;52.148;11.568;2024-01-06T12:28:05;48.50;;;16.38;;
6249;SDS011;3158;52.148;11.568;2024-01-06T12:33:07;38.72;;;14.15;;
6249;SDS011;3158;52.148;11.568;2024-01-06T12:38:08;40.75;;;14.48;;
6249;SDS011;3158;52.148;11.568;2024-01-06T12:43:09;37.00;;;12.57;;
6249;SDS011;3158;52.148;11.568;2024-01-06T12:48:11;51.65;;;15.63;;
6249;SDS011;3158;52.148;11.568;2024-01-06T12:53:12;48.25;;;15.93;;
6249;SDS011;3158;52.148;11.568;2024-01-06T12:58:15;52.50;;;17.20;;
6249;SDS011;3158;52.148;11.568;2024-01-06T13:03:16;42.22;;;15.95;;
6249;SDS011;3158;52.148;11.568;2024-01-06T13:08:17;52.40;;;16.55;;
6249;SDS011;3158;52.148;11.568;2024-01-06T13:13:18;45.60;;;15.52;;
6249;SDS011;3158;52.148;11.568;2024-01-06T13:18:19;55.90;;;16.40;;
6249;SDS011;3158;52.148;11.568;2024-01-06T13:23:21;57.80;;;18.20;;
6249;SDS011;3158;52.148;11.568;2024-01-06T13:28:22;52.22;;;16.70;;
6249;SDS011;3158;52.148;11.568;2024-01-06T13:33:24;43.45;;;13.57;;
6249;SDS011;3158;52.148;11.568;2024-01-06T13:38:26;63.25;;;16.55;;
6249;SDS011;3158;52.148;11.568;2024-01-06T13:43:27;61.90;;;16.08;;
6249;SDS011;3158;52.148;11.568;2024-01-06T13:48:28;51.17;;;15.93;;
6249;SDS011;3158;52.148;11.568;2024-01-06T13:53:29;47.88;;;15.20;;
6249;SDS011;3158;52.148;11.568;2024-01-06T13:58:30;59.85;;;14.88;;
6249;SDS011;3158;52.148;11.568;2024-01-06T14:03:31;48.55;;;15.27;;
6249;SDS011;3158;52.148;11.568;2024-01-06T14:08:32;55.20;;;18.33;;
6249;SDS011;3158;52.148;11.568;2024-01-06T14:13:34;47.13;;;14.05;;
6249;SDS011;3158;52.148;11.568;2024-01-06T14:18:35;47.95;;;14.15;;
6249;SDS011;3158;52.148;11.568;2024-01-06T14:23:36;46.08;;;14.88;;
6249;SDS011;3158;52.148;11.568;2024-01-06T14:28:37;46.40;;;12.95;;
6249;SDS011;3158;52.148;11.568;2024-01-06T14:33:38;35.90;;;12.70;;
6249;SDS011;3158;52.148;11.568;2024-01-06T14:38:39;47.72;;;13.82;;
6249;SDS011;3158;52.148;11.568;2024-01-06T14:43:40;52.05;;;14.13;;
6249;SDS011;3158;52.148;11.568;2024-01-06T14:48:41;46.03;;;15.23;;
6249;SDS011;3158;52.148;11.568;2024-01-06T14:53:42;49.85;;;14.10;;
6249;SDS011;3158;52.148;11.568;2024-01-06T14:58:43;52.75;;;14.77;;
6249;SDS011;3158;52.148;11.568;2024-01-06T15:03:44;53.75;;;14.70;;
6249;SDS011;3158;52.148;11.568;2024-01-06T15:08:45;36.88;;;13.73;;
6249;SDS011;3158;52.148;11.568;2024-01-06T15:13:46;46.40;;;13.65;;
6249;SDS011;3158;52.148;11.568;2024-01-06T15:18:47;49.60;;;13.07;;
6249;SDS011;3158;52.148;11.568;2024-01-06T15:23:50;58.05;;;16.80;;
6249;SDS011;3158;52.148;11.568;2024-01-06T15:28:51;53.42;;;15.88;;
6249;SDS011;3158;52.148;11.568;2024-01-06T15:33:52;45.42;;;14.88;;
6249;SDS011;3158;52.148;11.568;2024-01-06T15:38:53;49.65;;;15.02;;
6249;SDS011;3158;52.148;11.568;2024-01-06T15:43:54;41.90;;;14.95;;
6249;SDS011;3158;52.148;11.568;2024-01-06T15:48:55;42.10;;;14.35;;
6249;SDS011;3158;52.148;11.568;2024-01-06T15:53:56;46.42;;;14.85;;
6249;SDS011;3158;52.148;11.568;2024-01-06T15:58:57;43.53;;;14.43;;
6249;SDS011;3158;52.148;11.568;2024-01-06T16:03:58;46.85;;;15.10;;
6249;SDS011;3158;52.148;11.568;2024-01-06T16:08:59;51.85;;;15.13;;
6249;SDS011;3158;52.148;11.568;2024-01-06T16:14:00;49.22;;;16.08;;
6249;SDS011;3158;52.148;11.568;2024-01-06T16:19:01;43.15;;;15.82;;
6249;SDS011;3158;52.148;11.568;2024-01-06T16:24:02;49.97;;;16.27;;
6249;SDS011;3158;52.148;11.568;2024-01-06T16:29:03;46.70;;;16.80;;
6249;SDS011;3158;52.148;11.568;2024-01-06T16:34:04;41.22;;;15.98;;
6249;SDS011;3158;52.148;11.568;2024-01-06T16:39:05;45.55;;;16.60;;
6249;SDS011;3158;52.148;11.568;2024-01-06T16:44:06;41.97;;;15.20;;
6249;SDS011;3158;52.148;11.568;2024-01-06T16:49:08;49.63;;;15.68;;
6249;SDS011;3158;52.148;11.568;2024-01-06T16:54:10;43.08;;;15.02;;
6249;SDS011;3158;52.148;11.568;2024-01-06T16:59:11;45.85;;;16.60;;
6249;SDS011;3158;52.148;11.568;2024-01-06T17:04:12;39.00;;;14.40;;
6249;SDS011;3158;52.148;11.568;2024-01-06T17:09:13;42.90;;;15.65;;
6249;SDS011;3158;52.148;11.568;2024-01-06T17:14:14;57.75;;;16.45;;
6249;SDS011;3158;52.148;11.568;2024-01-06T17:19:15;45.78;;;17.35;;
6249;SDS011;3158;52.148;11.568;2024-01-06T17:24:16;42.83;;;16.48;;
6249;SDS011;3158;52.148;11.568;2024-01-06T17:29:17;40.10;;;15.65;;
6249;SDS011;3158;52.148;11.568;2024-01-06T17:34:18;39.10;;;15.75;;
6249;SDS011;3158;52.148;11.568;2024-01-06T17:39:19;38.00;;;16.58;;
6249;SDS011;3158;52.148;11.568;2024-01-06T17:44:20;38.58;;;15.63;;
6249;SDS011;3158;52.148;11.568;2024-01-06T17:49:21;34.83;;;15.18;;
6249;SDS011;3158;52.148;11.568;2024-01-06T17:54:22;33.42;;;14.68;;
6249;SDS011;3158;52.148;11.568;2024-01-06T17:59:23;42.65;;;15.40;;
6249;SDS011;3158;52.148;11.568;2024-01-06T18:04:24;40.85;;;15.27;;
6249;SDS011;3158;52.148;11.568;2024-01-06T18:09:25;41.08;;;14.38;;
6249;SDS011;3158;52.148;11.568;2024-01-06T18:14:28;39.58;;;15.57;;
6249;SDS011;3158;52.148;11.568;2024-01-06T18:19:35;41.92;;;17.00;;
6249;SDS011;3158;52.148;11.568;2024-01-06T18:24:36;38.60;;;16.55;;
6249;SDS011;3158;52.148;11.568;2024-01-06T18:29:37;49.08;;;16.80;;
6249;SDS011;3158;52.148;11.568;2024-01-06T18:34:38;39.90;;;17.80;;
6249;SDS011;3158;52.148;11.568;2024-01-06T18:39:42;37.70;;;14.40;;
6249;SDS011;3158;52.148;11.568;2024-01-06T18:44:43;40.47;;;14.73;;
6249;SDS011;3158;52.148;11.568;2024-01-06T18:49:44;32.05;;;14.07;;
6249;SDS011;3158;52.148;11.568;2024-01-06T18:54:46;35.15;;;13.70;;
6249;SDS011;3158;52.148;11.568;2024-01-06T18:59:47;38.25;;;14.20;;
6249;SDS011;3158;52.148;11.568;2024-01-06T19:04:48;29.83;;;13.27;;
6249;SDS011;3158;52.148;11.568;2024-01-06T19:09:49;33.00;;;13.90;;
6249;SDS011;3158;52.148;11.568;2024-01-06T19:14:50;29.42;;;14.18;;
6249;SDS011;3158;52.148;11.568;2024-01-06T19:19:51;31.27;;;13.82;;
6249;SDS011;3158;52.148;11.568;2024-01-06T19:24:52;35.42;;;14.32;;
6249;SDS011;3158;52.148;11.568;2024-01-06T19:29:54;28.73;;;12.38;;
6249;SDS011;3158;52.148;11.568;2024-01-06T19:34:55;25.45;;;12.32;;
6249;SDS011;3158;52.148;11.568;2024-01-06T19:39:58;26.23;;;11.98;;
6249;SDS011;3158;52.148;11.568;2024-01-06T19:44:59;30.13;;;12.13;;
6249;SDS011;3158;52.148;11.568;2024-01-06T19:50:00;27.17;;;11.98;;
6249;SDS011;3158;52.148;11.568;2024-01-06T19:55:03;22.88;;;11.13;;
6249;SDS011;3158;52.148;11.568;2024-01-06T20:00:04;23.95;;;11.60;;
6249;SDS011;3158;52.148;11.568;2024-01-06T20:05:10;24.63;;;10.07;;
6249;SDS011;3158;52.148;11.568;2024-01-06T20:10:11;18.13;;;8.35;;
6249;SDS011;3158;52.148;11.568;2024-01-06T20:15:12;16.85;;;8.07;;
6249;SDS011;3158;52.148;11.568;2024-01-06T20:20:13;19.60;;;9.77;;
6249;SDS011;3158;52.148;11.568;2024-01-06T20:25:14;19.55;;;8.02;;
6249;SDS011;3158;52.148;11.568;2024-01-06T20:30:15;14.27;;;8.13;;
6249;SDS011;3158;52.148;11.568;2024-01-06T20:35:17;20.77;;;8.73;;
6249;SDS011;3158;52.148;11.568;2024-01-06T20:40:19;16.05;;;7.57;;
6249;SDS011;3158;52.148;11.568;2024-01-06T20:45:20;12.52;;;6.95;;
6249;SDS011;3158;52.148;11.568;2024-01-06T20:50:21;16.15;;;8.20;;
6249;SDS011;3158;52.148;11.568;2024-01-06T20:55:23;9.75;;;7.25;;
6249;SDS011;3158;52.148;11.568;2024-01-06T21:00:24;13.65;;;6.70;;
6249;SDS011;3158;52.148;11.568;2024-01-06T21:05:25;13.25;;;7.35;;
6249;SDS011;3158;52.148;11.568;2024-01-06T21:10:26;10.57;;;6.50;;
6249;SDS011;3158;52.148;11.568;2024-01-06T21:15:27;12.55;;;6.60;;
6249;SDS011;3158;52.148;11.568;2024-01-06T21:20:28;17.23;;;7.07;;
6249;SDS011;3158;52.148;11.568;2024-01-06T21:25:29;15.05;;;7.68;;
6249;SDS011;3158;52.148;11.568;2024-01-06T21:30:30;12.75;;;6.45;;
6249;SDS011;3158;52.148;11.568;2024-01-06T21:35:31;11.02;;;7.07;;
6249;SDS011;3158;52.148;11.568;2024-01-06T21:40:33;14.43;;;7.00;;
6249;SDS011;3158;52.148;11.568;2024-01-06T21:45:34;14.55;;;7.40;;
6249;SDS011;3158;52.148;11.568;2024-01-06T21:50:35;12.02;;;6.43;;
6249;SDS011;3158;52.148;11.568;2024-01-06T21:55:36;9.82;;;5.72;;
6249;SDS011;3158;52.148;11.568;2024-01-06T22:00:37;11.85;;;6.03;;
6249;SDS011;3158;52.148;11.568;2024-01-06T22:05:38;11.88;;;5.45;;
6249;SDS011;3158;52.148;11.568;2024-01-06T22:10:39;8.80;;;5.18;;
6249;SDS011;3158;52.148;11.568;2024-01-06T22:15:40;11.32;;;5.78;;
6249;SDS011;3158;52.148;11.568;2024-01-06T22:20:41;12.43;;;6.15;;
6249;SDS011;3158;52.148;11.568;2024-01-06T22:25:42;6.15;;;5.47;;
6249;SDS011;3158;52.148;11.568;2024-01-06T22:30:43;13.55;;;6.07;;
6249;SDS011;3158;52.148;11.568;2024-01-06T22:35:44;8.02;;;4.93;;
6249;SDS011;3158;52.148;11.568;2024-01-06T22:40:45;11.27;;;5.55;;
6249;SDS011;3158;52.148;11.568;2024-01-06T22:45:46;8.85;;;4.80;;
6249;SDS011;3158;52.148;11.568;2024-01-06T22:50:47;10.50;;;5.97;;
6249;SDS011;3158;52.148;11.568;2024-01-06T22:55:48;8.27;;;5.45;;
6249;SDS011;3158;52.148;11.568;2024-01-06T23:00:49;14.65;;;6.05;;
6249;SDS011;3158;52.148;11.568;2024-01-06T23:05:52;9.80;;;5.53;;
6249;SDS011;3158;52.148;11.568;2024-01-06T23:10:53;8.70;;;5.82;;
6249;SDS011;3158;52.148;11.568;2024-01-06T23:15:54;8.60;;;5.35;;
6249;SDS011;3158;52.148;11.568;2024-01-06T23:20:55;9.23;;;6.32;;
6249;SDS011;3158;52.148;11.568;2024-01-06T23:25:57;8.70;;;4.90;;
6249;SDS011;3158;52.148;11.568;2024-01-06T23:30:58;8.05;;;5.38;;
6249;SDS011;3158;52.148;11.568;2024-01-06T23:35:59;11.93;;;5.57;;
6249;SDS011;3158;52.148;11.568;2024-01-06T23:41:00;8.75;;;5.00;;
6249;SDS011;3158;52.148;11.568;2024-01-06T23:46:01;10.65;;;5.40;;
6249;SDS011;3158;52.148;11.568;2024-01-06T23:51:03;11.70;;;5.32;;
6249;SDS011;3158;52.148;11.568;2024-01-06T23:56:04;8.30;;;5.10;;
